createdAt,value
2022-11-24T00:02:23.598Z,14.60
2022-11-24T00:04:50.260Z,15.43
2022-11-24T00:07:16.814Z,14.70
2022-11-24T00:09:43.434Z,14.15
2022-11-24T00:12:09.939Z,15.18
2022-11-24T00:14:36.547Z,14.52
2022-11-24T00:17:03.183Z,15.82
2022-11-24T00:19:29.845Z,15.32
2022-11-24T00:21:56.357Z,14.43
2022-11-24T00:24:22.921Z,15.00
2022-11-24T00:26:49.397Z,14.13
2022-11-24T00:29:15.918Z,15.65
2022-11-24T00:31:43.035Z,14.32
2022-11-24T00:34:14.211Z,14.80
2022-11-24T00:36:41.405Z,14.35
2022-11-24T00:39:12.116Z,15.05
2022-11-24T00:41:39.116Z,14.73
2022-11-24T00:44:06.038Z,14.95
2022-11-24T00:46:32.739Z,15.48
2022-11-24T00:49:00.496Z,16.25
2022-11-24T00:51:29.800Z,14.70
2022-11-24T00:53:57.636Z,15.18
2022-11-24T00:56:25.480Z,15.18
2022-11-24T00:58:52.312Z,16.35
2022-11-24T01:01:21.656Z,16.10
2022-11-24T01:03:48.189Z,14.00
2022-11-24T01:06:17.204Z,14.70
2022-11-24T01:08:44.203Z,14.90
2022-11-24T01:11:26.437Z,16.25
2022-11-24T01:13:57.516Z,15.73
2022-11-24T01:16:30.708Z,14.90
2022-11-24T01:18:57.724Z,15.55
2022-11-24T01:21:24.357Z,15.48
2022-11-24T01:23:50.934Z,14.35
2022-11-24T01:26:21.747Z,15.32
2022-11-24T01:28:55.872Z,15.07
2022-11-24T01:31:22.774Z,15.55
2022-11-24T01:33:49.378Z,14.18
2022-11-24T01:36:15.886Z,15.63
2022-11-24T01:38:42.396Z,14.40
2022-11-24T01:41:23.342Z,14.93
2022-11-24T01:43:50.863Z,14.68
2022-11-24T01:46:19.985Z,15.60
2022-11-24T01:49:21.660Z,14.98
2022-11-24T01:52:06.809Z,15.32
2022-11-24T01:54:36.600Z,15.13
2022-11-24T01:57:11.330Z,15.38
2022-11-24T01:59:37.916Z,14.65
2022-11-24T02:02:04.768Z,14.45
2022-11-24T02:04:33.281Z,16.13
2022-11-24T02:07:01.247Z,15.20
2022-11-24T02:09:43.706Z,15.60
2022-11-24T02:12:10.767Z,14.48
2022-11-24T02:14:38.026Z,16.05
2022-11-24T02:17:04.498Z,14.63
2022-11-24T02:19:39.895Z,14.73
2022-11-24T02:22:35.077Z,13.98
2022-11-24T02:25:10.688Z,14.70
2022-11-24T02:27:37.442Z,16.60
2022-11-24T02:30:04.363Z,16.33
2022-11-24T02:32:32.180Z,17.17
2022-11-24T02:35:03.607Z,15.57
2022-11-24T02:37:30.180Z,16.60
2022-11-24T02:39:56.680Z,15.63
2022-11-24T02:42:23.672Z,17.75
2022-11-24T02:44:54.183Z,16.15
2022-11-24T02:47:20.691Z,15.60
2022-11-24T02:49:47.224Z,16.52
2022-11-24T02:52:13.880Z,17.48
2022-11-24T02:54:40.355Z,17.17
2022-11-24T02:57:06.879Z,16.45
2022-11-24T02:59:33.359Z,16.83
2022-11-24T03:01:59.985Z,16.67
2022-11-24T03:04:26.584Z,17.45
2022-11-24T03:06:53.307Z,17.35
2022-11-24T03:09:19.912Z,16.40
2022-11-24T03:11:46.526Z,16.80
2022-11-24T03:14:12.995Z,16.42
2022-11-24T03:16:39.779Z,17.88
2022-11-24T03:19:06.381Z,17.75
2022-11-24T03:21:33.010Z,17.77
2022-11-24T03:24:00.285Z,17.27
2022-11-24T03:26:27.156Z,16.25
2022-11-24T03:28:55.770Z,17.35
2022-11-24T03:31:23.406Z,17.23
2022-11-24T03:33:49.949Z,17.92
2022-11-24T03:36:16.819Z,17.60
2022-11-24T03:38:43.856Z,17.77
2022-11-24T03:41:10.684Z,16.80
2022-11-24T03:43:43.162Z,17.27
2022-11-24T03:46:10.816Z,16.13
2022-11-24T03:48:37.342Z,17.08
2022-11-24T03:51:04.054Z,17.70
2022-11-24T03:53:31.902Z,17.08
2022-11-24T03:55:58.475Z,18.17
2022-11-24T03:58:25.616Z,17.38
2022-11-24T04:00:53.637Z,15.55
2022-11-24T04:03:20.846Z,17.80
2022-11-24T04:05:47.473Z,16.65
2022-11-24T04:08:14.742Z,15.15
2022-11-24T04:10:41.372Z,17.20
2022-11-24T04:13:13.116Z,16.70
2022-11-24T04:15:40.843Z,17.20
2022-11-24T04:18:08.411Z,15.75
2022-11-24T04:20:35.514Z,16.90
2022-11-24T04:23:02.122Z,15.18
2022-11-24T04:25:28.796Z,16.95
2022-11-24T04:27:56.294Z,16.77
2022-11-24T04:30:24.351Z,14.90
2022-11-24T04:32:51.127Z,16.23
2022-11-24T04:35:17.744Z,16.67
2022-11-24T04:37:44.367Z,15.25
2022-11-24T04:40:12.000Z,17.67
2022-11-24T04:42:38.595Z,15.90
2022-11-24T04:45:06.163Z,17.10
2022-11-24T04:47:32.711Z,15.80
2022-11-24T04:49:59.248Z,16.73
2022-11-24T04:52:26.000Z,16.38
2022-11-24T04:54:52.668Z,16.42
2022-11-24T04:57:23.467Z,16.00
2022-11-24T04:59:51.125Z,17.45
2022-11-24T05:02:17.669Z,16.23
2022-11-24T05:04:44.613Z,16.42
2022-11-24T05:07:17.767Z,16.92
2022-11-24T05:10:03.626Z,17.83
2022-11-24T05:12:32.933Z,17.05
2022-11-24T05:15:04.169Z,17.58
2022-11-24T05:17:32.548Z,16.70
2022-11-24T05:19:59.214Z,17.00
2022-11-24T05:22:25.984Z,15.77
2022-11-24T05:24:52.557Z,16.75
2022-11-24T05:27:19.177Z,17.45
2022-11-24T05:29:45.810Z,16.15
2022-11-24T05:32:12.425Z,16.48
2022-11-24T05:34:39.104Z,17.40
2022-11-24T05:37:05.636Z,18.40
2022-11-24T05:39:33.973Z,16.65
2022-11-24T05:42:22.302Z,17.45
2022-11-24T05:44:48.897Z,16.75
2022-11-24T05:47:15.416Z,17.95
2022-11-24T05:49:41.962Z,15.60
2022-11-24T05:52:09.048Z,16.60
2022-11-24T05:54:35.918Z,16.42
2022-11-24T05:57:02.717Z,16.50
2022-11-24T05:59:29.289Z,15.52
2022-11-24T06:01:56.102Z,16.35
2022-11-24T06:04:23.097Z,17.20
2022-11-24T06:06:49.653Z,16.00
2022-11-24T06:09:16.300Z,16.98
2022-11-24T06:11:43.349Z,15.90
2022-11-24T06:14:11.674Z,16.05
2022-11-24T06:16:38.464Z,15.35
2022-11-24T06:19:05.153Z,15.68
2022-11-24T06:21:31.866Z,15.38
2022-11-24T06:23:58.629Z,17.88
2022-11-24T06:26:25.559Z,16.70
2022-11-24T06:28:52.119Z,17.10
2022-11-24T06:31:18.717Z,16.52
2022-11-24T06:33:45.570Z,16.15
2022-11-24T06:36:13.880Z,16.42
2022-11-24T06:38:40.903Z,16.08
2022-11-24T06:41:11.390Z,16.98
2022-11-24T06:43:38.505Z,16.73
2022-11-24T06:46:05.211Z,14.95
2022-11-24T06:48:32.007Z,15.73
2022-11-24T06:51:10.390Z,15.63
2022-11-24T06:53:38.341Z,15.80
2022-11-24T06:56:15.858Z,15.30
2022-11-24T06:58:45.233Z,14.82
2022-11-24T07:01:26.941Z,14.88
2022-11-24T07:03:54.222Z,14.65
2022-11-24T07:06:21.449Z,15.23
2022-11-24T07:08:48.104Z,14.75
2022-11-24T07:11:17.189Z,14.38
2022-11-24T07:13:44.749Z,15.07
2022-11-24T07:16:22.958Z,14.38
2022-11-24T07:18:51.276Z,15.73
2022-11-24T07:21:19.930Z,15.00
2022-11-24T07:23:53.002Z,15.50
2022-11-24T07:26:20.146Z,14.45
2022-11-24T07:28:47.191Z,15.63
2022-11-24T07:31:19.127Z,15.07
2022-11-24T07:33:53.687Z,15.02
2022-11-24T07:36:20.950Z,16.92
2022-11-24T07:38:47.887Z,17.02
2022-11-24T07:41:15.703Z,15.95
2022-11-24T07:43:42.656Z,15.38
2022-11-24T07:46:13.281Z,15.77
2022-11-24T07:48:41.299Z,15.57
2022-11-24T07:51:08.344Z,16.45
2022-11-24T07:53:35.788Z,18.77
2022-11-24T07:56:03.963Z,18.65
2022-11-24T07:58:33.372Z,19.80
2022-11-24T08:03:27.232Z,17.85
2022-11-24T08:06:23.247Z,17.63
2022-11-24T08:08:45.413Z,17.23
2022-11-24T08:11:14.233Z,17.42
2022-11-24T08:13:41.453Z,18.42
2022-11-24T08:16:13.532Z,16.77
2022-11-24T08:18:40.372Z,18.73
2022-11-24T08:21:07.985Z,18.23
2022-11-24T08:23:35.132Z,17.65
2022-11-24T08:26:06.005Z,17.90
2022-11-24T08:28:33.267Z,18.40
2022-11-24T08:31:10.852Z,16.17
2022-11-24T08:33:37.694Z,16.75
2022-11-24T08:36:08.891Z,17.42
2022-11-24T08:38:36.037Z,16.63
2022-11-24T08:41:13.887Z,16.55
2022-11-24T08:43:40.694Z,17.10
2022-11-24T08:46:12.194Z,16.63
2022-11-24T08:48:38.876Z,16.92
2022-11-24T08:51:14.930Z,17.40
2022-11-24T08:53:42.384Z,17.90
2022-11-24T08:56:10.459Z,15.77
2022-11-24T08:58:38.010Z,17.73
2022-11-24T09:01:15.111Z,18.90
2022-11-24T09:03:48.457Z,17.83
2022-11-24T09:06:22.973Z,18.02
2022-11-24T09:08:49.763Z,19.48
2022-11-24T09:11:17.276Z,22.00
2022-11-24T09:13:44.604Z,22.92
2022-11-24T09:16:13.464Z,20.75
2022-11-24T09:18:40.327Z,20.45
2022-11-24T09:21:15.844Z,19.65
2022-11-24T09:23:43.042Z,18.95
2022-11-24T09:26:11.777Z,18.17
2022-11-24T09:28:38.380Z,19.27
2022-11-24T09:31:07.164Z,18.38
2022-11-24T09:33:34.350Z,17.23
2022-11-24T09:36:01.856Z,18.77
2022-11-24T09:38:28.449Z,18.38
2022-11-24T09:40:58.305Z,17.88
2022-11-24T09:43:48.082Z,17.95
2022-11-24T09:46:23.432Z,18.42
2022-11-24T09:48:53.973Z,19.05
2022-11-24T09:51:24.965Z,17.08
2022-11-24T09:54:00.244Z,18.08
2022-11-24T09:56:29.228Z,18.13
2022-11-24T09:59:10.927Z,19.27
2022-11-24T10:01:41.066Z,17.80
2022-11-24T10:04:31.162Z,18.95
2022-11-24T10:07:04.619Z,17.17
2022-11-24T10:10:07.107Z,18.08
2022-11-24T10:12:45.810Z,17.70
2022-11-24T10:15:37.493Z,19.23
2022-11-24T10:18:16.958Z,18.17
2022-11-24T10:20:59.057Z,17.55
2022-11-24T10:23:43.994Z,18.42
2022-11-24T10:26:37.587Z,19.23
2022-11-24T10:29:26.903Z,18.58
2022-11-24T10:31:55.620Z,18.65
2022-11-24T10:34:44.071Z,21.17
2022-11-24T10:37:10.782Z,19.70
2022-11-24T10:39:46.657Z,19.17
2022-11-24T10:42:40.250Z,18.35
2022-11-24T10:45:15.614Z,18.98
2022-11-24T10:47:43.176Z,17.77
2022-11-24T10:50:09.966Z,17.45
2022-11-24T10:52:45.453Z,18.38
2022-11-24T10:55:12.100Z,20.42
2022-11-24T10:57:40.209Z,21.80
2022-11-24T11:00:18.932Z,21.17
2022-11-24T11:02:50.886Z,21.83
2022-11-24T11:05:32.608Z,21.52
2022-11-24T11:08:14.580Z,20.65
2022-11-24T11:10:44.729Z,21.38
2022-11-24T11:14:01.538Z,19.55
2022-11-24T11:16:39.036Z,20.10
2022-11-24T11:19:47.963Z,18.58
2022-11-24T11:22:24.549Z,18.58
2022-11-24T11:25:11.512Z,18.77
2022-11-24T11:27:39.710Z,17.55
2022-11-24T11:36:11.959Z,16.92
2022-11-24T11:38:39.810Z,17.23
2022-11-24T11:41:08.635Z,18.10
2022-11-24T11:43:36.336Z,17.65
2022-11-24T11:46:10.557Z,18.13
2022-11-24T11:48:43.538Z,17.35
2022-11-24T11:51:26.104Z,19.52
2022-11-24T11:54:03.602Z,19.45
2022-11-24T11:56:31.406Z,19.35
2022-11-24T11:59:32.187Z,19.38
2022-11-24T12:02:10.766Z,18.48
2022-11-24T12:04:52.697Z,20.33
2022-11-24T12:07:31.419Z,18.55
2022-11-24T12:10:10.121Z,18.08
2022-11-24T12:12:52.070Z,17.23
2022-11-24T12:15:27.071Z,18.45
2022-11-24T12:18:56.628Z,18.58
2022-11-24T12:21:26.584Z,18.35
2022-11-24T12:24:11.295Z,19.55
2022-11-24T12:27:01.391Z,19.58
2022-11-24T12:29:40.008Z,17.70
2022-11-24T12:32:21.534Z,18.53
2022-11-24T12:34:56.033Z,19.75
2022-11-24T12:37:50.515Z,20.10
2022-11-24T12:40:35.611Z,18.35
2022-11-24T12:43:17.624Z,19.75
2022-11-24T12:46:15.564Z,19.65
2022-11-24T12:48:55.809Z,19.80
2022-11-24T12:51:43.467Z,19.67
2022-11-24T12:54:13.658Z,20.40
2022-11-24T12:56:50.471Z,24.75
2022-11-24T12:59:50.909Z,23.08
2022-11-24T13:02:54.350Z,22.00
2022-11-24T13:05:31.398Z,20.50
2022-11-24T13:08:00.440Z,21.45
2022-11-24T13:10:55.923Z,20.10
2022-11-24T13:13:18.398Z,19.23
2022-11-24T13:18:45.203Z,19.48
2022-11-24T13:21:30.695Z,20.27
2022-11-24T13:24:03.583Z,19.17
2022-11-24T13:26:33.589Z,19.05
2022-11-24T13:29:13.402Z,19.58
2022-11-24T13:31:51.390Z,18.42
2022-11-24T13:34:40.203Z,20.75
2022-11-24T13:37:34.820Z,18.00
2022-11-24T13:40:14.302Z,18.90
2022-11-24T13:42:56.276Z,18.58
2022-11-24T13:45:49.764Z,18.40
2022-11-24T13:48:19.203Z,17.42
2022-11-24T13:53:47.366Z,18.52
2022-11-24T13:56:14.112Z,17.92
2022-11-24T13:58:40.783Z,18.52
2022-11-24T14:01:20.483Z,18.92
2022-11-24T14:04:29.379Z,20.13
2022-11-24T14:06:55.064Z,18.80
2022-11-24T14:09:23.965Z,18.00
2022-11-24T14:12:20.308Z,18.13
2022-11-24T14:14:49.066Z,17.08
2022-11-24T14:17:21.134Z,18.05
2022-11-24T14:19:49.949Z,17.90
2022-11-24T14:22:24.374Z,18.15
2022-11-24T14:24:56.319Z,16.88
2022-11-24T14:27:37.731Z,16.80
2022-11-24T14:30:10.226Z,16.67
2022-11-24T14:32:38.319Z,16.52
2022-11-24T14:35:24.792Z,17.55
2022-11-24T14:37:51.668Z,18.02
2022-11-24T14:40:50.249Z,18.27
2022-11-24T14:43:21.055Z,18.87
2022-11-24T14:45:52.307Z,16.02
2022-11-24T14:48:22.570Z,17.48
2022-11-24T14:50:49.159Z,18.02
2022-11-24T14:53:16.671Z,16.15
2022-11-24T14:55:43.184Z,16.75
2022-11-24T14:58:31.024Z,16.25
2022-11-24T15:01:18.526Z,17.48
2022-11-24T15:03:45.443Z,17.23
2022-11-24T15:06:19.635Z,17.98
2022-11-24T15:08:47.691Z,15.77
2022-11-24T15:11:14.341Z,16.88
2022-11-24T15:13:54.400Z,15.25
2022-11-24T15:16:23.805Z,16.42
2022-11-24T15:19:01.656Z,15.98
2022-11-24T15:21:32.824Z,15.43
2022-11-24T15:24:20.657Z,17.10
2022-11-24T15:26:47.318Z,15.27
2022-11-24T15:29:13.858Z,15.98
2022-11-24T15:31:41.315Z,16.58
2022-11-24T15:34:09.963Z,16.05
2022-11-24T15:36:36.509Z,15.73
2022-11-24T15:39:03.115Z,17.08
2022-11-24T15:41:30.975Z,17.10
2022-11-24T15:44:00.829Z,16.92
2022-11-24T15:46:29.337Z,16.85
2022-11-24T15:48:56.071Z,16.67
2022-11-24T15:51:25.309Z,16.75
2022-11-24T15:53:57.212Z,17.52
2022-11-24T15:56:34.986Z,17.23
2022-11-24T15:59:02.524Z,17.50
2022-11-24T16:01:31.700Z,17.48
2022-11-24T16:03:58.325Z,16.42
2022-11-24T16:06:25.631Z,16.65
2022-11-24T16:08:53.329Z,16.33
2022-11-24T16:11:20.167Z,17.38
2022-11-24T16:13:51.841Z,16.52
2022-11-24T16:16:19.619Z,15.68
2022-11-24T16:18:46.408Z,17.35
2022-11-24T16:21:13.027Z,17.63
2022-11-24T16:23:39.714Z,16.67
2022-11-24T16:26:06.748Z,17.73
2022-11-24T16:28:33.667Z,17.80
2022-11-24T16:31:00.245Z,16.77
2022-11-24T16:33:29.017Z,16.88
2022-11-24T16:35:55.667Z,17.45
2022-11-24T16:38:22.203Z,15.90
2022-11-24T16:40:56.546Z,17.80
2022-11-24T16:43:24.648Z,16.50
2022-11-24T16:46:18.061Z,16.23
2022-11-24T16:48:46.490Z,16.83
2022-11-24T16:51:13.748Z,17.10
2022-11-24T16:53:40.726Z,15.82
2022-11-24T16:56:07.678Z,17.70
2022-11-24T16:58:37.430Z,15.60
2022-11-24T17:01:06.213Z,16.83
2022-11-24T17:03:33.885Z,15.23
2022-11-24T17:06:00.844Z,15.63
2022-11-24T17:08:30.793Z,15.88
2022-11-24T17:10:57.646Z,16.42
2022-11-24T17:13:24.443Z,14.65
2022-11-24T17:15:54.091Z,15.77
2022-11-24T17:18:25.401Z,15.65
2022-11-24T17:20:52.332Z,15.93
2022-11-24T17:23:19.710Z,14.95
2022-11-24T17:25:48.535Z,14.52
2022-11-24T17:28:15.180Z,13.93
2022-11-24T17:30:41.719Z,15.20
2022-11-24T17:33:10.124Z,14.95
2022-11-24T17:35:37.071Z,16.00
2022-11-24T17:38:09.192Z,16.02
2022-11-24T17:40:35.705Z,17.08
2022-11-24T17:43:02.296Z,16.63
2022-11-24T17:45:30.739Z,15.25
2022-11-24T17:47:59.292Z,18.20
2022-11-24T17:50:26.622Z,17.42
2022-11-24T17:52:53.881Z,17.30
2022-11-24T17:55:20.511Z,17.35
2022-11-24T17:57:47.055Z,16.65
2022-11-24T18:00:14.136Z,14.77
2022-11-24T18:02:40.658Z,16.75
2022-11-24T18:05:07.609Z,15.98
2022-11-24T18:07:36.598Z,15.98
2022-11-24T18:10:03.609Z,15.82
2022-11-24T18:12:30.170Z,15.30
2022-11-24T18:14:56.831Z,15.45
2022-11-24T18:17:23.473Z,16.15
2022-11-24T18:19:50.113Z,16.33
2022-11-24T18:22:16.672Z,14.65
2022-11-24T18:24:43.172Z,15.70
2022-11-24T18:27:09.729Z,17.85
2022-11-24T18:29:36.351Z,15.25
2022-11-24T18:32:04.100Z,15.38
2022-11-24T18:34:30.714Z,15.82
2022-11-24T18:36:57.228Z,16.25
2022-11-24T18:39:23.776Z,15.70
2022-11-24T18:41:50.319Z,16.40
2022-11-24T18:44:16.954Z,16.35
2022-11-24T18:46:43.434Z,15.60
2022-11-24T18:49:10.530Z,16.17
2022-11-24T18:51:37.092Z,16.13
2022-11-24T18:54:05.348Z,15.32
2022-11-24T18:56:32.056Z,16.65
2022-11-24T18:59:01.697Z,15.70
2022-11-24T19:01:29.098Z,15.85
2022-11-24T19:03:58.144Z,16.30
2022-11-24T19:06:31.902Z,16.05
2022-11-24T19:09:00.391Z,15.48
2022-11-24T19:11:29.058Z,14.50
2022-11-24T19:13:56.720Z,15.43
2022-11-24T19:16:23.932Z,16.23
2022-11-24T19:18:54.069Z,17.13
2022-11-24T19:21:21.803Z,18.92
2022-11-24T19:23:48.549Z,18.35
2022-11-24T19:26:15.146Z,19.90
2022-11-24T19:28:41.751Z,19.13
2022-11-24T19:31:12.205Z,16.70
2022-11-24T19:33:39.552Z,16.25
2022-11-24T19:36:17.813Z,15.95
2022-11-24T19:38:53.057Z,14.63
2022-11-24T19:41:21.633Z,15.43
2022-11-24T19:43:48.437Z,15.43
2022-11-24T19:46:17.598Z,14.80
2022-11-24T19:48:46.378Z,15.15
2022-11-24T19:51:21.407Z,15.30
2022-11-24T19:53:48.082Z,15.52
2022-11-24T19:56:17.438Z,15.27
2022-11-24T19:58:44.182Z,13.32
2022-11-24T20:01:16.750Z,14.90
2022-11-24T20:03:44.415Z,17.17
2022-11-24T20:06:12.898Z,14.80
2022-11-24T20:08:40.651Z,14.43
2022-11-24T20:11:15.698Z,14.48
2022-11-24T20:13:43.573Z,15.00
2022-11-24T20:16:13.101Z,14.85
2022-11-24T20:21:20.064Z,13.25
2022-11-24T20:23:52.429Z,14.45
2022-11-24T20:26:20.888Z,14.43
2022-11-24T20:28:47.666Z,14.38
2022-11-24T20:31:17.312Z,14.18
2022-11-24T20:33:44.324Z,15.68
2022-11-24T20:36:13.174Z,15.52
2022-11-24T20:38:40.690Z,14.05
2022-11-24T20:41:11.504Z,15.73
2022-11-24T20:43:39.055Z,14.75
2022-11-24T20:46:22.990Z,13.93
2022-11-24T20:48:50.045Z,13.27
2022-11-24T20:51:21.778Z,14.23
2022-11-24T20:53:53.251Z,14.48
2022-11-24T20:56:25.297Z,14.15
2022-11-24T20:58:52.182Z,14.73
2022-11-24T21:01:21.418Z,16.00
2022-11-24T21:03:53.040Z,15.02
2022-11-24T21:06:19.758Z,14.27
2022-11-24T21:08:46.335Z,16.40
2022-11-24T21:11:14.346Z,15.60
2022-11-24T21:13:44.320Z,15.82
2022-11-24T21:16:14.776Z,14.48
2022-11-24T21:18:41.795Z,16.08
2022-11-24T21:21:08.429Z,15.35
2022-11-24T21:23:35.079Z,16.20
2022-11-24T21:26:05.497Z,15.70
2022-11-24T21:28:33.460Z,16.67
2022-11-24T21:31:08.143Z,14.75
2022-11-24T21:33:34.989Z,14.75
2022-11-24T21:36:05.567Z,16.27
2022-11-24T21:38:32.742Z,16.00
2022-11-24T21:41:06.121Z,15.13
2022-11-24T21:43:33.734Z,16.20
2022-11-24T21:46:05.141Z,15.57
2022-11-24T21:48:32.508Z,16.33
2022-11-24T21:51:00.671Z,16.90
2022-11-24T21:53:30.586Z,15.98
2022-11-24T21:55:58.656Z,15.95
2022-11-24T21:58:26.124Z,15.70
2022-11-24T22:00:52.993Z,15.63
2022-11-24T22:03:20.307Z,15.43
2022-11-24T22:05:54.437Z,16.08
2022-11-24T22:08:21.711Z,15.82
2022-11-24T22:10:48.418Z,15.88
2022-11-24T22:13:15.048Z,16.98
2022-11-24T22:15:42.359Z,16.10
2022-11-24T22:18:08.992Z,15.18
2022-11-24T22:20:35.647Z,15.40
2022-11-24T22:23:02.342Z,16.38
2022-11-24T22:25:28.811Z,16.92
2022-11-24T22:27:56.716Z,16.45
2022-11-24T22:30:23.263Z,17.50
2022-11-24T22:32:49.765Z,16.92
2022-11-24T22:35:16.309Z,16.73
2022-11-24T22:37:42.814Z,18.13
2022-11-24T22:40:09.445Z,17.80
2022-11-24T22:42:36.002Z,16.75
2022-11-24T22:45:02.981Z,17.40
2022-11-24T22:47:29.572Z,17.58
2022-11-24T22:49:56.099Z,16.30
2022-11-24T22:52:22.596Z,16.30
2022-11-24T22:54:49.159Z,17.00
2022-11-24T22:57:15.660Z,17.42
2022-11-24T22:59:42.199Z,17.13
2022-11-24T23:02:08.750Z,16.40
2022-11-24T23:04:35.608Z,16.45
2022-11-24T23:07:03.276Z,17.08
2022-11-24T23:09:29.878Z,15.80
2022-11-24T23:11:56.768Z,16.27
2022-11-24T23:14:23.348Z,16.95
2022-11-24T23:16:50.189Z,15.60
2022-11-24T23:19:16.733Z,15.70
2022-11-24T23:21:43.257Z,15.65
2022-11-24T23:24:10.702Z,16.77
2022-11-24T23:26:39.807Z,15.07
2022-11-24T23:29:07.441Z,16.58
2022-11-24T23:31:39.700Z,16.48
2022-11-24T23:34:06.501Z,15.13
2022-11-24T23:36:33.057Z,14.48
2022-11-24T23:39:08.472Z,15.95
2022-11-24T23:41:35.050Z,15.38
2022-11-24T23:44:01.627Z,15.43
2022-11-24T23:46:28.553Z,15.73
2022-11-24T23:48:55.790Z,15.38
2022-11-24T23:51:26.951Z,16.40
2022-11-24T23:53:53.695Z,15.55
2022-11-24T23:56:25.538Z,16.63
2022-11-24T23:58:52.477Z,15.80
